Terminal Aerodrome Forecast
Issued by NWS Boston, MA

Home | Current Version | Previous Version | Text Only | Print | Product List | Glossary Off
Versions: 1 2 3 4 5 6 7 8 9 10 11 12 13 14 15 16 17 18 19 20 21 22 23 24 25
000 FTUS41 KBOX 310852 AAA TAFBOS TAF AMD KBOS 310852Z 3109/0112 02006KT P6SM OVC060 FM311400 04007KT P6SM BKN050 FM311800 08009KT P6SM BKN050 FM010500 04011KT P6SM OVC050=

USA.gov is the U.S. government's official web portal to all federal, state and local government web resources and services.